Time;durP1;ratioP1;P1;durP2;ratioP2;P2;SDS_P1;SDS_P2;PMS_P1;PMS_P2;Temp;Humidity;BMP_temperature;BMP_pressure;BME280_temperature;BME280_humidity;BME280_pressure;Samples;Min_cycle;Max_cycle;Signal;HPM_P1;HPM_P2
2021/07/08 00:00:02;;;;;;;5.10;3.43;;;16.60;99.90;;;;;;4975984;28;20208;-62
2021/07/08 00:02:28;;;;;;;4.07;3.40;;;16.60;99.90;;;;;;4975783;28;20213;-62
2021/07/08 00:04:55;;;;;;;5.63;3.67;;;16.50;99.90;;;;;;4975730;28;20208;-62
2021/07/08 00:07:23;;;;;;;6.83;4.13;;;16.50;99.90;;;;;;4975597;28;20717;-61
2021/07/08 00:09:49;;;;;;;6.67;3.33;;;16.40;99.90;;;;;;4975539;28;20232;-62
2021/07/08 00:12:16;;;;;;;7.87;3.93;;;16.30;99.90;;;;;;4975825;28;20208;-62
2021/07/08 00:14:43;;;;;;;5.27;3.50;;;16.30;99.90;;;;;;4975461;28;20237;-62
2021/07/08 00:17:09;;;;;;;5.57;3.40;;;16.30;99.90;;;;;;4975436;28;20228;-63
2021/07/08 00:19:36;;;;;;;5.23;3.63;;;16.20;99.90;;;;;;4975736;28;20212;-62
2021/07/08 00:22:04;;;;;;;7.30;3.93;;;16.10;1.00;;;;;;4975759;28;20551;-63
2021/07/08 00:24:32;;;;;;;5.77;3.70;;;16.00;1.00;;;;;;4975287;28;20359;-62
2021/07/08 00:26:59;;;;;;;5.77;4.10;;;16.00;41.30;;;;;;4975493;28;20283;-61
2021/07/08 00:29:25;;;;;;;6.43;4.10;;;15.90;99.90;;;;;;4975201;28;20279;-62
2021/07/08 00:31:52;;;;;;;4.83;3.90;;;15.90;99.90;;;;;;4975446;28;20215;-62
2021/07/08 00:34:19;;;;;;;8.27;4.10;;;15.90;99.90;;;;;;4975413;28;20241;-61
2021/07/08 00:36:45;;;;;;;9.83;4.73;;;15.90;1.00;;;;;;4975233;28;20228;-62
2021/07/08 00:39:12;;;;;;;8.27;4.90;;;15.90;1.00;;;;;;4975143;28;20736;-61
2021/07/08 00:41:40;;;;;;;6.70;4.57;;;15.90;99.90;;;;;;4975026;28;20676;-61
2021/07/08 00:44:07;;;;;;;5.03;4.37;;;15.90;99.90;;;;;;4974914;28;20208;-61
2021/07/08 00:46:33;;;;;;;8.97;4.47;;;15.90;1.00;;;;;;4974868;28;20255;-61
2021/07/08 00:49:00;;;;;;;8.37;4.83;;;15.80;1.00;;;;;;4974897;28;20767;-62
2021/07/08 00:51:27;;;;;;;11.87;4.60;;;15.90;99.90;;;;;;4975046;28;20255;-61
2021/07/08 00:53:53;;;;;;;7.33;4.13;;;15.80;99.90;;;;;;4974736;28;20255;-61
2021/07/08 00:56:20;;;;;;;7.50;4.60;;;15.80;99.90;;;;;;4974593;28;20232;-62
2021/07/08 00:59:02;;;;;;;6.87;4.43;;;15.80;99.90;;;;;;4974792;28;20208;-61
2021/07/08 01:01:28;;;;;;;6.63;4.90;;;15.80;99.90;;;;;;4975343;28;20631;-63
2021/07/08 01:03:56;;;;;;;6.33;3.90;;;15.80;99.90;;;;;;4975208;28;20255;-62
2021/07/08 01:06:23;;;;;;;4.63;3.90;;;15.80;29.20;;;;;;4974858;28;20271;-62
2021/07/08 01:08:50;;;;;;;8.60;5.07;;;15.80;1.00;;;;;;4974763;28;20224;-62
2021/07/08 01:11:17;;;;;;;6.77;4.47;;;15.80;1.00;;;;;;4974820;28;20261;-62
2021/07/08 01:13:44;;;;;;;8.80;3.90;;;15.80;1.00;;;;;;4975496;28;20263;-60
2021/07/08 01:16:12;;;;;;;8.07;4.33;;;15.70;1.00;;;;;;4975106;28;20931;-61
2021/07/08 01:18:39;;;;;;;9.07;4.30;;;15.70;1.00;;;;;;4973835;28;20205;-61
2021/07/08 01:21:23;;;;;;;10.07;4.50;;;15.70;36.20;;;;;;4974528;28;20251;-61
2021/07/08 01:23:50;;;;;;;8.57;4.50;;;15.60;99.90;;;;;;4973994;28;20208;-62
2021/07/08 01:26:16;;;;;;;6.43;4.43;;;15.60;99.90;;;;;;4974463;28;20307;-61
2021/07/08 01:28:44;;;;;;;6.33;4.50;;;15.50;99.90;;;;;;4974296;28;20251;-62
2021/07/08 01:31:10;;;;;;;6.13;4.00;;;15.50;99.90;;;;;;4974337;28;20216;-61
2021/07/08 01:33:37;;;;;;;7.47;4.20;;;15.40;1.00;;;;;;4973975;28;20208;-62
2021/07/08 01:36:04;;;;;;;6.77;4.77;;;15.40;99.90;;;;;;4974233;28;20572;-62
2021/07/08 01:38:32;;;;;;;6.10;4.67;;;15.40;99.90;;;;;;4973929;28;20223;-63
2021/07/08 01:40:59;;;;;;;8.47;4.37;;;15.30;99.90;;;;;;4974261;28;20255;-63
2021/07/08 01:43:26;;;;;;;8.27;4.40;;;15.30;99.90;;;;;;4974093;28;20208;-62
2021/07/08 01:45:53;;;;;;;6.50;4.40;;;15.30;99.90;;;;;;4973904;28;20271;-62
2021/07/08 01:48:20;;;;;;;7.83;4.20;;;15.30;99.90;;;;;;4973882;28;20204;-62
2021/07/08 01:50:47;;;;;;;8.67;3.80;;;15.30;99.90;;;;;;4973758;28;20219;-62
2021/07/08 01:53:15;;;;;;;6.93;4.27;;;15.20;69.00;;;;;;4974009;28;20204;-61
2021/07/08 01:55:43;;;;;;;8.00;4.37;;;15.20;28.60;;;;;;4973620;28;20212;-62
2021/07/08 01:58:10;;;;;;;6.23;4.37;;;15.20;1.00;;;;;;4973702;28;20705;-62
2021/07/08 02:00:36;;;;;;;4.80;3.83;;;15.20;1.00;;;;;;4973807;28;20267;-62
2021/07/08 02:03:04;;;;;;;5.40;4.03;;;15.20;1.00;;;;;;4973619;28;20267;-62
2021/07/08 02:05:31;;;;;;;10.33;3.97;;;15.20;1.00;;;;;;4973355;28;20212;-62
2021/07/08 02:07:57;;;;;;;5.10;4.07;;;15.20;99.90;;;;;;4973767;28;20228;-61
2021/07/08 02:10:24;;;;;;;5.90;4.40;;;15.20;99.90;;;;;;4973545;28;20286;-63
2021/07/08 02:12:52;;;;;;;5.63;4.23;;;15.20;99.90;;;;;;4973697;28;20205;-63
2021/07/08 02:15:20;;;;;;;7.30;4.00;;;15.20;99.90;;;;;;4973452;28;20208;-61
2021/07/08 02:17:47;;;;;;;10.87;4.83;;;15.20;99.90;;;;;;4973188;28;20236;-62
2021/07/08 02:20:15;;;;;;;6.97;4.23;;;15.10;99.90;;;;;;4973379;28;20204;-62
2021/07/08 02:22:42;;;;;;;5.17;4.37;;;15.10;1.00;;;;;;4973500;28;20211;-62
2021/07/08 02:25:10;;;;;;;6.57;3.90;;;15.10;1.00;;;;;;4973394;28;20302;-63
2021/07/08 02:27:37;;;;;;;6.43;4.00;;;15.10;1.00;;;;;;4973307;28;20305;-61
2021/07/08 02:30:08;;;;;;;5.63;4.33;;;15.00;1.00;;;;;;4972480;28;20250;-62
2021/07/08 02:32:35;;;;;;;8.97;4.53;;;15.00;1.00;;;;;;4973094;28;20204;-61
2021/07/08 02:35:02;;;;;;;8.40;4.23;;;15.00;39.10;;;;;;4973274;28;20273;-60
2021/07/08 02:37:28;;;;;;;10.07;5.20;;;14.90;99.90;;;;;;4973036;28;20227;-62
2021/07/08 02:39:55;;;;;;;9.07;4.33;;;15.00;99.90;;;;;;4973298;28;20254;-62
2021/07/08 02:42:21;;;;;;;11.23;4.80;;;14.90;99.90;;;;;;4973252;28;20216;-62
2021/07/08 02:44:48;;;;;;;8.30;4.50;;;14.90;99.90;;;;;;4973078;28;20208;-62
2021/07/08 02:47:16;;;;;;;12.73;4.60;;;14.90;6.40;;;;;;4972990;28;20251;-62
2021/07/08 02:49:43;;;;;;;6.93;4.93;;;14.80;99.90;;;;;;4973150;28;20231;-63
2021/07/08 02:52:09;;;;;;;6.80;4.70;;;14.80;99.90;;;;;;4973066;28;20609;-62
2021/07/08 02:54:36;;;;;;;6.53;4.83;;;14.80;99.90;;;;;;4972908;28;20223;-61
2021/07/08 02:57:03;;;;;;;6.17;4.63;;;14.80;1.00;;;;;;4972970;28;20240;-61
2021/07/08 02:59:30;;;;;;;7.27;4.83;;;14.80;1.00;;;;;;4972701;28;20262;-62
2021/07/08 03:01:56;;;;;;;8.33;4.67;;;14.80;94.00;;;;;;4973090;28;20882;-62
2021/07/08 03:04:25;;;;;;;9.47;5.07;;;14.70;99.90;;;;;;4972843;28;20237;-62
2021/07/08 03:06:51;;;;;;;8.13;4.90;;;14.70;99.90;;;;;;4973036;28;20286;-62
2021/07/08 03:09:18;;;;;;;6.97;4.80;;;14.70;99.90;;;;;;4972754;28;20745;-62
2021/07/08 03:11:44;;;;;;;10.00;4.70;;;14.80;99.90;;;;;;4972901;28;20212;-62
2021/07/08 03:14:11;;;;;;;8.60;5.20;;;14.70;99.90;;;;;;4972411;28;20262;-61
2021/07/08 03:16:38;;;;;;;7.50;4.90;;;14.70;99.90;;;;;;4973019;28;20305;-63
2021/07/08 03:19:04;;;;;;;6.47;4.73;;;14.70;99.90;;;;;;4973024;28;20215;-62
2021/07/08 03:21:32;;;;;;;6.77;4.70;;;14.70;99.90;;;;;;4972784;28;20227;-61
2021/07/08 03:24:00;;;;;;;9.53;5.63;;;14.70;99.90;;;;;;4972799;28;20208;-61
2021/07/08 03:26:27;;;;;;;7.23;5.10;;;14.70;99.90;;;;;;4972628;28;20284;-62
2021/07/08 03:28:54;;;;;;;6.70;4.77;;;14.70;42.40;;;;;;4972644;28;20298;-63
2021/07/08 03:31:22;;;;;;;7.10;4.80;;;14.70;1.00;;;;;;4972912;28;20262;-62
2021/07/08 03:33:49;;;;;;;7.77;4.93;;;14.70;1.00;;;;;;4972518;28;20216;-62
2021/07/08 03:36:15;;;;;;;10.47;4.80;;;14.70;1.00;;;;;;4972635;28;20285;-62
2021/07/08 03:38:43;;;;;;;9.60;4.80;;;14.60;76.70;;;;;;4972911;28;20269;-62
2021/07/08 03:41:10;;;;;;;8.50;4.63;;;14.60;99.90;;;;;;4974215;28;20208;-62
2021/07/08 03:43:36;;;;;;;7.80;4.87;;;14.70;99.90;;;;;;4976030;28;20803;-63
2021/07/08 03:46:03;;;;;;;9.63;5.20;;;14.70;69.90;;;;;;4976183;28;20231;-63
2021/07/08 03:48:29;;;;;;;6.23;4.60;;;14.70;31.60;;;;;;4976353;28;20282;-62
2021/07/08 03:50:56;;;;;;;7.73;5.03;;;14.70;3.40;;;;;;4976016;28;20775;-62
2021/07/08 03:53:23;;;;;;;8.27;4.50;;;14.70;1.00;;;;;;4975972;28;20263;-62
2021/07/08 03:55:51;;;;;;;8.43;5.13;;;14.70;1.00;;;;;;4975673;28;20673;-62
2021/07/08 03:58:17;;;;;;;10.10;5.40;;;14.70;1.00;;;;;;4975914;28;20220;-62
2021/07/08 04:00:44;;;;;;;9.43;5.00;;;14.70;11.80;;;;;;4976138;28;20243;-62
2021/07/08 04:03:13;;;;;;;9.40;5.07;;;14.80;16.80;;;;;;4975974;28;20207;-63
2021/07/08 04:05:40;;;;;;;7.83;4.80;;;14.80;28.50;;;;;;4975707;28;20274;-63
2021/07/08 04:08:07;;;;;;;7.93;5.20;;;14.80;48.70;;;;;;4975819;28;20263;-62
2021/07/08 04:10:36;;;;;;;7.30;4.60;;;14.80;99.90;;;;;;4975613;28;20228;-63
2021/07/08 04:13:06;;;;;;;10.53;4.87;;;14.70;99.90;;;;;;4975845;28;20275;-64
2021/07/08 04:15:33;;;;;;;10.03;6.03;;;14.70;99.90;;;;;;4975509;28;20664;-62
2021/07/08 04:18:00;;;;;;;14.23;8.60;;;14.80;99.90;;;;;;4975567;28;20231;-63
2021/07/08 04:20:27;;;;;;;6.60;5.70;;;14.80;72.70;;;;;;4975663;28;20207;-62
2021/07/08 04:22:54;;;;;;;10.17;7.13;;;14.80;1.00;;;;;;4975527;28;20677;-63
2021/07/08 04:25:22;;;;;;;10.93;7.30;;;14.90;99.90;;;;;;4975403;28;20266;-64
2021/07/08 04:27:49;;;;;;;9.30;6.40;;;14.90;98.20;;;;;;4975809;28;20231;-62
2021/07/08 04:30:21;;;;;;;8.57;5.40;;;15.00;1.00;;;;;;4975850;28;20696;-63
2021/07/08 04:32:48;;;;;;;11.77;6.50;;;15.00;99.90;;;;;;4975777;28;20220;-62
2021/07/08 04:35:18;;;;;;;8.53;6.27;;;15.10;99.90;;;;;;4975479;28;20278;-62
2021/07/08 04:37:45;;;;;;;12.67;5.43;;;15.10;99.90;;;;;;4976123;28;20368;-62
2021/07/08 04:40:14;;;;;;;10.63;4.90;;;15.20;1.00;;;;;;4975619;28;20205;-63
2021/07/08 04:42:41;;;;;;;9.37;5.13;;;15.20;1.00;;;;;;4975603;28;20212;-62
2021/07/08 04:45:10;;;;;;;7.67;5.00;;;15.30;1.00;;;;;;4975315;28;20205;-63
2021/07/08 04:47:39;;;;;;;6.63;4.60;;;15.30;1.00;;;;;;4975236;28;20716;-62
2021/07/08 04:50:09;;;;;;;7.83;5.23;;;15.40;1.00;;;;;;4975228;28;20278;-63
2021/07/08 04:52:37;;;;;;;6.63;4.87;;;15.50;1.00;;;;;;4974597;28;20231;-63
2021/07/08 04:55:04;;;;;;;8.20;5.13;;;15.60;1.00;;;;;;4975214;28;20267;-63
2021/07/08 04:57:31;;;;;;;7.03;3.97;;;15.70;99.90;;;;;;4975243;28;20235;-63
2021/07/08 04:59:57;;;;;;;7.60;4.60;;;15.70;99.90;;;;;;4975151;28;20204;-62
2021/07/08 05:02:24;;;;;;;7.77;4.07;;;15.80;99.90;;;;;;4974669;28;20208;-63
2021/07/08 05:04:52;;;;;;;8.27;4.47;;;15.90;99.90;;;;;;4975302;28;20263;-63
2021/07/08 05:07:19;;;;;;;6.67;4.53;;;16.00;99.90;;;;;;4974772;28;20232;-63
2021/07/08 05:09:45;;;;;;;6.53;4.50;;;16.10;99.90;;;;;;4974750;28;20701;-62
2021/07/08 05:12:12;;;;;;;6.20;4.40;;;16.20;99.90;;;;;;4975024;28;20259;-63
2021/07/08 05:14:38;;;;;;;7.17;4.53;;;16.30;99.90;;;;;;4975355;28;20209;-63
2021/07/08 05:17:05;;;;;;;6.23;4.50;;;16.40;99.90;;;;;;4974939;28;20308;-63
2021/07/08 05:19:32;;;;;;;7.70;3.97;;;16.50;1.00;;;;;;4975082;28;20213;-63
2021/07/08 05:22:00;;;;;;;8.00;4.37;;;16.50;99.90;;;;;;4974482;28;20259;-63
2021/07/08 05:24:28;;;;;;;7.57;4.23;;;16.60;99.90;;;;;;4974468;28;20215;-64
2021/07/08 05:26:54;;;;;;;6.47;4.07;;;16.70;99.90;;;;;;4974297;28;20657;-63
2021/07/08 05:29:22;;;;;;;5.67;4.20;;;16.80;99.90;;;;;;4974384;28;20270;-63
2021/07/08 05:31:49;;;;;;;6.27;4.20;;;16.90;99.90;;;;;;4974091;28;20724;-63
2021/07/08 05:34:16;;;;;;;7.30;4.27;;;17.00;99.90;;;;;;4974052;28;20208;-62
2021/07/08 05:36:43;;;;;;;5.53;4.47;;;17.10;99.90;;;;;;4974426;28;20287;-62
2021/07/08 05:39:11;;;;;;;6.83;4.80;;;17.10;99.90;;;;;;4974099;28;20627;-63
2021/07/08 05:41:38;;;;;;;5.13;3.83;;;17.20;99.90;;;;;;4974036;28;20751;-62
2021/07/08 05:44:05;;;;;;;11.67;5.17;;;17.30;99.90;;;;;;4973726;28;20670;-63
2021/07/08 05:46:31;;;;;;;6.33;3.97;;;17.40;99.90;;;;;;4973920;28;20721;-63
2021/07/08 05:48:58;;;;;;;7.07;3.37;;;17.40;39.90;;;;;;4974605;28;20204;-62
2021/07/08 05:51:25;;;;;;;6.67;3.77;;;17.50;1.00;;;;;;4974462;28;20381;-63
2021/07/08 05:53:53;;;;;;;4.93;3.73;;;17.60;1.00;;;;;;4974267;28;20818;-62
2021/07/08 05:56:21;;;;;;;7.70;4.00;;;17.70;1.00;;;;;;4974368;28;20228;-62
2021/07/08 05:58:47;;;;;;;5.33;4.00;;;17.80;21.80;;;;;;4973711;28;20204;-63
2021/07/08 06:01:14;;;;;;;5.83;4.20;;;17.90;10.60;;;;;;4973967;28;20216;-63
2021/07/08 06:03:40;;;;;;;9.70;4.40;;;18.00;1.00;;;;;;4973510;28;20212;-63
2021/07/08 06:06:07;;;;;;;6.27;4.23;;;18.10;99.90;;;;;;4973677;28;20247;-62
2021/07/08 06:08:34;;;;;;;8.47;4.10;;;18.20;99.90;;;;;;4973836;28;20270;-64
2021/07/08 06:11:00;;;;;;;7.73;4.13;;;18.40;99.90;;;;;;4973368;28;20244;-62
2021/07/08 06:13:28;;;;;;;5.90;3.77;;;18.50;99.90;;;;;;4973348;28;20259;-62
2021/07/08 06:15:55;;;;;;;10.03;4.20;;;18.60;99.90;;;;;;4973573;28;20204;-63
2021/07/08 06:18:21;;;;;;;6.73;4.13;;;18.70;1.00;;;;;;4973638;28;20271;-63
2021/07/08 06:20:49;;;;;;;5.30;4.03;;;18.70;99.90;;;;;;4973472;28;20208;-65
2021/07/08 06:23:15;;;;;;;5.30;3.63;;;18.80;8.70;;;;;;4973467;28;20216;-64
2021/07/08 06:25:42;;;;;;;7.57;4.00;;;19.00;1.00;;;;;;4972942;28;20208;-64
2021/07/08 06:28:09;;;;;;;5.23;3.47;;;19.00;1.00;;;;;;4973399;28;20609;-63
2021/07/08 06:30:37;;;;;;;7.20;3.53;;;19.10;1.00;;;;;;4973398;28;20253;-64
2021/07/08 06:33:04;;;;;;;6.23;3.63;;;19.10;99.90;;;;;;4973315;28;20212;-63
2021/07/08 06:35:31;;;;;;;5.83;3.57;;;19.20;99.90;;;;;;4972809;28;20259;-63
2021/07/08 06:37:57;;;;;;;5.33;3.13;;;19.40;99.90;;;;;;4973010;28;20228;-64
2021/07/08 06:40:24;;;;;;;5.97;3.37;;;19.50;99.90;;;;;;4973009;28;20283;-63
2021/07/08 06:42:51;;;;;;;9.63;3.93;;;19.60;99.90;;;;;;4973165;28;20204;-63
2021/07/08 06:45:18;;;;;;;6.13;3.00;;;19.70;99.90;;;;;;4972971;28;20259;-62
2021/07/08 06:47:48;;;;;;;6.97;3.43;;;19.80;67.70;;;;;;4973093;28;20232;-63
2021/07/08 06:50:15;;;;;;;6.80;3.20;;;19.80;1.00;;;;;;4971305;28;20236;-66
2021/07/08 06:52:42;;;;;;;5.07;3.30;;;20.00;1.00;;;;;;4972406;28;20631;-63
2021/07/08 06:55:11;;;;;;;5.30;3.20;;;20.10;1.00;;;;;;4971986;28;20223;-63
2021/07/08 06:57:50;;;;;;;4.90;3.07;;;20.10;1.00;;;;;;4972844;28;20674;-63
2021/07/08 07:00:17;;;;;;;8.77;3.40;;;20.00;1.00;;;;;;4973141;28;20211;-63
2021/07/08 07:02:46;;;;;;;4.23;2.93;;;20.20;1.00;;;;;;4972913;28;20259;-63
2021/07/08 07:05:12;;;;;;;5.97;2.87;;;20.30;1.00;;;;;;4972766;28;20223;-63
2021/07/08 07:07:39;;;;;;;6.40;3.40;;;20.50;1.00;;;;;;4972822;28;20298;-63
2021/07/08 07:10:07;;;;;;;5.27;3.47;;;20.60;1.00;;;;;;4972908;28;20212;-63
2021/07/08 07:12:33;;;;;;;6.17;3.50;;;20.60;1.00;;;;;;4973097;28;20208;-61
2021/07/08 07:15:00;;;;;;;7.20;3.13;;;20.80;1.00;;;;;;4972728;28;20614;-62
2021/07/08 07:17:27;;;;;;;5.77;3.07;;;20.70;1.00;;;;;;4976725;28;20287;-62
2021/07/08 07:19:55;;;;;;;6.03;2.73;;;20.80;1.00;;;;;;4976408;28;20212;-61
2021/07/08 07:22:22;;;;;;;6.03;2.70;;;20.90;1.00;;;;;;4976824;28;20910;-61
2021/07/08 07:24:51;;;;;;;6.50;3.07;;;21.10;1.00;;;;;;4976569;28;20209;-61
2021/07/08 07:27:17;;;;;;;5.77;2.87;;;21.30;1.00;;;;;;4976598;28;20354;-61
2021/07/08 07:29:44;;;;;;;6.80;2.80;;;21.40;1.00;;;;;;4976521;28;20271;-62
2021/07/08 07:32:11;;;;;;;5.20;2.70;;;21.50;99.90;;;;;;4976412;28;20278;-61
2021/07/08 07:34:37;;;;;;;4.93;3.20;;;21.50;99.90;;;;;;4976184;28;20623;-61
2021/07/08 07:37:05;;;;;;;6.10;2.90;;;21.60;99.90;;;;;;4976449;28;20236;-61
2021/07/08 07:39:32;;;;;;;6.33;3.40;;;21.40;99.90;;;;;;4976605;28;20275;-61
2021/07/08 07:41:59;;;;;;;4.27;2.97;;;21.30;99.90;;;;;;4976248;28;20212;-61
2021/07/08 07:44:25;;;;;;;6.13;3.00;;;21.40;99.90;;;;;;4976053;28;20208;-61
2021/07/08 07:46:52;;;;;;;6.90;2.97;;;21.40;99.90;;;;;;4976097;28;20229;-61
2021/07/08 07:49:19;;;;;;;5.63;3.23;;;21.50;99.90;;;;;;4976269;28;20216;-61
2021/07/08 07:51:45;;;;;;;6.93;3.23;;;21.80;99.90;;;;;;4976261;28;20353;-61
2021/07/08 07:54:13;;;;;;;7.87;3.40;;;21.70;99.90;;;;;;4975935;28;20624;-61
2021/07/08 07:56:40;;;;;;;8.10;3.30;;;21.80;99.90;;;;;;4975818;28;20244;-61
2021/07/08 07:59:06;;;;;;;5.87;2.90;;;21.80;99.90;;;;;;4975975;28;20220;-62
2021/07/08 08:01:33;;;;;;;5.50;3.10;;;21.80;99.90;;;;;;4975773;28;20212;-62
2021/07/08 08:04:00;;;;;;;5.20;2.60;;;21.90;99.90;;;;;;4975739;28;20208;-62
2021/07/08 08:09:13;;;;;;;5.80;2.60;;;22.30;99.90;;;;;;4975694;28;20203;-61
2021/07/08 08:11:40;;;;;;;5.60;2.87;;;22.60;99.90;;;;;;4975759;28;20279;-62
2021/07/08 08:14:06;;;;;;;6.17;2.93;;;22.80;99.90;;;;;;4975201;28;20317;-61
2021/07/08 08:16:35;;;;;;;6.40;2.83;;;22.80;99.90;;;;;;4975520;28;20283;-64
2021/07/08 08:19:03;;;;;;;8.30;3.07;;;22.90;99.90;;;;;;4975684;28;20236;-63
2021/07/08 08:21:29;;;;;;;6.10;2.97;;;22.80;99.90;;;;;;4975582;28;20208;-64
2021/07/08 08:23:56;;;;;;;6.80;3.20;;;23.00;99.90;;;;;;4975445;28;20205;-64
2021/07/08 08:26:26;;;;;;;5.50;3.00;;;23.30;99.90;;;;;;4975430;28;20286;-63
2021/07/08 08:28:53;;;;;;;6.70;2.70;;;23.60;99.90;;;;;;4975299;28;20212;-61
2021/07/08 08:31:20;;;;;;;6.10;3.00;;;23.80;99.90;;;;;;4975536;28;20240;-62
2021/07/08 08:33:47;;;;;;;4.80;2.70;;;23.50;99.90;;;;;;4975307;28;20215;-61
2021/07/08 08:36:14;;;;;;;4.27;2.70;;;23.50;99.90;;;;;;4975283;28;20776;-62
2021/07/08 08:38:41;;;;;;;7.50;2.57;;;23.60;99.90;;;;;;4975299;28;20213;-62
2021/07/08 08:41:07;;;;;;;5.57;2.67;;;23.80;99.90;;;;;;4975058;28;20883;-62
2021/07/08 08:43:36;;;;;;;6.10;2.60;;;23.80;99.90;;;;;;4975053;28;20212;-62
2021/07/08 08:46:03;;;;;;;6.03;2.40;;;23.80;99.90;;;;;;4975094;28;20225;-62
2021/07/08 08:48:31;;;;;;;6.73;2.33;;;23.80;99.90;;;;;;4975035;28;20220;-64
2021/07/08 08:50:57;;;;;;;3.37;2.10;;;24.10;99.90;;;;;;4975087;28;20224;-63
2021/07/08 08:53:24;;;;;;;5.80;2.20;;;24.00;99.90;;;;;;4974841;28;20704;-62
2021/07/08 08:55:51;;;;;;;6.90;2.90;;;24.10;99.90;;;;;;4974531;28;20251;-62
2021/07/08 08:58:20;;;;;;;6.53;3.10;;;24.20;99.90;;;;;;4974664;28;20278;-60
2021/07/08 09:00:50;;;;;;;3.47;1.90;;;24.00;99.90;;;;;;4975011;28;20208;-60
2021/07/08 09:03:20;;;;;;;5.13;2.33;;;24.10;99.90;;;;;;4974641;28;20208;-61
2021/07/08 09:05:50;;;;;;;3.87;2.20;;;24.20;99.90;;;;;;4974659;28;20251;-61
2021/07/08 09:08:19;;;;;;;4.70;2.67;;;24.40;99.90;;;;;;4974432;28;20212;-62
2021/07/08 09:10:49;;;;;;;4.67;2.40;;;24.60;99.90;;;;;;4974851;28;20205;-61
2021/07/08 09:13:16;;;;;;;4.97;2.57;;;24.60;99.90;;;;;;4974731;28;20208;-60
2021/07/08 09:15:44;;;;;;;4.63;2.40;;;24.70;99.90;;;;;;4974400;28;20268;-61
2021/07/08 09:18:14;;;;;;;3.30;2.20;;;24.70;99.90;;;;;;4975675;28;20205;-62
2021/07/08 09:20:41;;;;;;;6.47;2.60;;;25.00;99.90;;;;;;4975905;28;20635;-66
2021/07/08 09:23:12;;;;;;;4.07;2.50;;;24.60;99.90;;;;;;4972073;28;20259;-69
2021/07/08 09:25:40;;;;;;;8.10;2.63;;;24.60;99.90;;;;;;4973558;28;20629;-65
2021/07/08 09:28:20;;;;;;;4.07;2.10;;;24.50;99.90;;;;;;4974338;28;20212;-65
2021/07/08 09:30:57;;;;;;;4.17;2.50;;;24.60;99.90;;;;;;4973756;28;20219;-65
2021/07/08 09:33:38;;;;;;;4.93;2.27;;;24.60;99.90;;;;;;4974492;28;20229;-65
2021/07/08 09:36:15;;;;;;;3.73;2.03;;;24.70;99.90;;;;;;4973981;28;20728;-65
2021/07/08 09:38:44;;;;;;;5.30;1.90;;;24.50;99.90;;;;;;4973810;28;20262;-65
2021/07/08 09:41:17;;;;;;;4.27;2.10;;;24.60;99.90;;;;;;4974173;28;20205;-63
2021/07/08 09:43:45;;;;;;;5.40;2.20;;;24.70;99.90;;;;;;4973958;28;20208;-62
2021/07/08 09:46:13;;;;;;;3.80;1.77;;;24.80;99.90;;;;;;4974110;28;20287;-62
2021/07/08 09:49:01;;;;;;;3.73;2.03;;;24.80;99.90;;;;;;4974237;28;20212;-62
2021/07/08 09:51:31;;;;;;;4.00;1.87;;;24.90;99.90;;;;;;4968893;28;20271;-60
2021/07/08 09:54:05;;;;;;;4.50;1.90;;;25.00;99.90;;;;;;4970382;28;20216;-61
2021/07/08 09:56:47;;;;;;;3.07;1.70;;;25.20;99.90;;;;;;4970507;28;20236;-63
2021/07/08 09:59:15;;;;;;;4.27;1.60;;;25.30;99.90;;;;;;4970692;28;20212;-60
2021/07/08 10:01:43;;;;;;;2.77;1.50;;;25.50;99.90;;;;;;4971685;28;20208;-63
2021/07/08 10:04:10;;;;;;;4.53;1.83;;;25.40;99.90;;;;;;4970791;28;20271;-62
2021/07/08 10:06:39;;;;;;;3.07;1.70;;;25.50;99.90;;;;;;4970773;28;20239;-65
2021/07/08 10:09:06;;;;;;;3.10;1.60;;;25.60;99.90;;;;;;4970622;28;20279;-64
2021/07/08 10:11:33;;;;;;;3.20;1.70;;;25.70;99.90;;;;;;4970422;28;20326;-64
2021/07/08 10:14:03;;;;;;;4.90;1.80;;;25.70;99.90;;;;;;4970611;28;20255;-63
2021/07/08 10:16:32;;;;;;;2.80;1.70;;;25.80;99.90;;;;;;4970184;28;20731;-62
2021/07/08 10:19:05;;;;;;;5.30;2.00;;;25.70;99.90;;;;;;4970104;28;20240;-62
2021/07/08 10:21:32;;;;;;;4.47;2.00;;;25.50;99.90;;;;;;4970112;28;20212;-63
2021/07/08 10:24:02;;;;;;;5.13;2.27;;;25.60;99.90;;;;;;4972987;28;20242;-63
2021/07/08 10:26:29;;;;;;;4.67;2.10;;;25.50;99.90;;;;;;4972922;28;20321;-63
2021/07/08 10:28:57;;;;;;;4.73;2.20;;;25.50;99.90;;;;;;4973182;28;20685;-63
2021/07/08 10:31:25;;;;;;;4.77;2.30;;;25.50;99.90;;;;;;4972688;28;20792;-63
2021/07/08 10:34:16;;;;;;;3.90;2.07;;;25.40;99.90;;;;;;4972672;28;20244;-63
2021/07/08 10:36:46;;;;;;;4.97;2.10;;;25.60;99.90;;;;;;4973220;28;20234;-63
2021/07/08 10:39:15;;;;;;;3.83;1.80;;;25.50;99.90;;;;;;4972847;28;20208;-63
2021/07/08 10:41:54;;;;;;;4.13;1.90;;;25.70;99.90;;;;;;4972796;28;20292;-63
2021/07/08 10:44:43;;;;;;;4.03;2.20;;;25.50;99.90;;;;;;4972749;28;20204;-63
2021/07/08 10:47:30;;;;;;;4.30;2.30;;;25.40;99.90;;;;;;4972910;28;20235;-63
2021/07/08 10:49:57;;;;;;;4.20;2.00;;;25.30;99.90;;;;;;4972846;28;20259;-62
2021/07/08 10:52:40;;;;;;;3.23;2.10;;;25.30;99.90;;;;;;4976502;28;20220;-63
2021/07/08 10:55:09;;;;;;;4.43;2.10;;;25.40;99.90;;;;;;4976765;28;20208;-63
2021/07/08 10:57:37;;;;;;;3.80;1.70;;;25.60;99.90;;;;;;4976542;28;20286;-63
2021/07/08 11:00:06;;;;;;;5.73;1.90;;;25.30;99.90;;;;;;4976817;28;20208;-64
2021/07/08 11:02:46;;;;;;;3.57;2.20;;;25.40;99.90;;;;;;4976578;28;20204;-65
2021/07/08 11:05:13;;;;;;;2.57;1.80;;;25.30;99.90;;;;;;4976373;28;20212;-64
2021/07/08 11:07:46;;;;;;;5.80;2.00;;;25.30;99.90;;;;;;4976679;28;20282;-64
2021/07/08 11:10:15;;;;;;;5.53;2.33;;;25.40;99.90;;;;;;4976625;28;20210;-64
2021/07/08 11:12:43;;;;;;;4.70;2.17;;;25.50;99.90;;;;;;4977009;28;20224;-63
2021/07/08 11:15:10;;;;;;;6.10;2.53;;;25.30;99.90;;;;;;4976623;28;20302;-63
2021/07/08 11:17:41;;;;;;;5.43;2.60;;;24.80;99.90;;;;;;4976127;28;20232;-64
2021/07/08 11:20:29;;;;;;;4.97;2.70;;;24.30;99.90;;;;;;4976553;28;20217;-64
2021/07/08 11:22:56;;;;;;;5.80;2.83;;;23.60;99.90;;;;;;4976060;28;20291;-65
2021/07/08 11:25:41;;;;;;;6.33;3.03;;;23.40;99.90;;;;;;4976186;28;20299;-64
2021/07/08 11:28:26;;;;;;;7.50;3.87;;;23.20;99.90;;;;;;4976183;28;20222;-63
2021/07/08 11:30:58;;;;;;;12.33;4.33;;;22.80;99.90;;;;;;4976364;28;20303;-64
2021/07/08 11:33:25;;;;;;;12.17;4.60;;;22.20;99.90;;;;;;4975844;28;20232;-63
2021/07/08 11:35:56;;;;;;;7.43;5.20;;;21.90;99.90;;;;;;4976074;28;20212;-64
2021/07/08 11:38:25;;;;;;;8.73;5.17;;;21.50;99.90;;;;;;4975937;28;20216;-63
2021/07/08 11:40:54;;;;;;;9.77;5.07;;;21.30;1.00;;;;;;4976130;28;20216;-64
2021/07/08 11:43:26;;;;;;;6.60;4.30;;;21.30;1.00;;;;;;4975977;28;20205;-64
2021/07/08 11:45:55;;;;;;;6.87;4.30;;;21.30;99.90;;;;;;4975917;28;20267;-64
2021/07/08 11:48:30;;;;;;;6.60;4.10;;;21.40;1.00;;;;;;4975990;28;20271;-64
2021/07/08 11:50:57;;;;;;;7.77;4.53;;;21.60;1.00;;;;;;4975589;28;20203;-64
2021/07/08 11:53:25;;;;;;;7.97;4.43;;;21.80;1.00;;;;;;4975709;28;20232;-65
2021/07/08 11:55:54;;;;;;;5.43;3.87;;;22.10;1.00;;;;;;4975371;28;20625;-64
2021/07/08 11:58:26;;;;;;;7.17;3.53;;;22.40;99.90;;;;;;4975652;28;20224;-64
2021/07/08 12:00:54;;;;;;;4.70;3.37;;;22.60;99.90;;;;;;4975442;28;20204;-61
2021/07/08 12:03:27;;;;;;;5.73;3.67;;;22.70;99.90;;;;;;4975210;28;20236;-61
2021/07/08 12:05:59;;;;;;;5.23;3.10;;;22.90;99.90;;;;;;4975737;28;20259;-62
2021/07/08 12:08:27;;;;;;;5.93;3.00;;;23.00;99.90;;;;;;4976286;28;20236;-62
2021/07/08 12:11:06;;;;;;;6.37;2.83;;;23.10;99.90;;;;;;4975501;28;20208;-62
2021/07/08 12:13:34;;;;;;;3.60;2.70;;;22.90;99.90;;;;;;4975037;28;20570;-63
2021/07/08 12:16:07;;;;;;;5.67;3.10;;;22.70;99.90;;;;;;4975237;28;20228;-61
2021/07/08 12:18:49;;;;;;;3.83;2.70;;;22.90;99.90;;;;;;4975443;28;20219;-62
2021/07/08 12:21:21;;;;;;;4.33;2.70;;;23.10;99.90;;;;;;4975342;28;20642;-64
2021/07/08 12:23:48;;;;;;;6.40;3.53;;;23.20;99.90;;;;;;4974772;28;20830;-63
2021/07/08 12:26:25;;;;;;;5.67;2.87;;;23.30;99.90;;;;;;4975022;28;20240;-62
2021/07/08 12:28:52;;;;;;;3.67;2.27;;;23.50;99.90;;;;;;4975243;28;20214;-64
2021/07/08 12:31:20;;;;;;;4.80;2.53;;;23.60;99.90;;;;;;4975113;28;20266;-62
2021/07/08 12:34:01;;;;;;;4.33;2.77;;;23.70;99.90;;;;;;4974825;28;20824;-63
2021/07/08 12:36:27;;;;;;;5.07;2.60;;;23.80;99.90;;;;;;4974977;28;20228;-63
2021/07/08 12:38:54;;;;;;;4.43;2.77;;;23.70;99.90;;;;;;4974888;28;20216;-62
2021/07/08 12:41:22;;;;;;;6.30;3.60;;;23.50;99.90;;;;;;4974919;28;20208;-62
2021/07/08 12:43:50;;;;;;;5.30;2.80;;;23.40;99.90;;;;;;4974763;28;20208;-63
2021/07/08 12:46:16;;;;;;;5.63;2.70;;;23.40;99.90;;;;;;4974762;28;20236;-63
2021/07/08 12:48:43;;;;;;;4.57;2.40;;;23.50;99.90;;;;;;4974676;28;20713;-62
2021/07/08 12:51:10;;;;;;;5.33;2.93;;;23.60;99.90;;;;;;4974465;28;20630;-63
2021/07/08 12:53:37;;;;;;;3.67;2.83;;;23.90;99.90;;;;;;4974467;28;20282;-63
2021/07/08 12:56:10;;;;;;;6.53;3.10;;;24.10;99.90;;;;;;4974594;28;20279;-62